createdAt,value
2022-12-01T00:00:32.172Z,83.34
2022-12-01T00:03:37.122Z,83.17
2022-12-01T00:06:42.320Z,83.26
2022-12-01T00:10:04.320Z,83.45
2022-12-01T00:13:07.482Z,83.55
2022-12-01T00:16:13.273Z,83.85
2022-12-01T00:19:16.570Z,83.46
2022-12-01T00:22:20.041Z,83.13
2022-12-01T00:25:23.050Z,82.81
2022-12-01T00:28:26.695Z,81.65
2022-12-01T00:31:29.788Z,83.18
2022-12-01T00:34:34.190Z,82.69
2022-12-01T00:37:39.316Z,83.84
2022-12-01T00:40:43.160Z,85.52
2022-12-01T00:43:46.719Z,85.35
2022-12-01T00:46:50.536Z,85.36
2022-12-01T00:49:54.049Z,85.40
2022-12-01T00:52:57.499Z,85.49
2022-12-01T00:56:01.177Z,85.39
2022-12-01T00:59:04.484Z,84.59
2022-12-01T01:02:08.447Z,83.18
2022-12-01T01:05:12.285Z,82.23
2022-12-01T01:08:15.647Z,81.91
2022-12-01T01:11:21.132Z,81.27
2022-12-01T01:14:24.841Z,80.57
2022-12-01T01:17:28.556Z,80.61
2022-12-01T01:20:32.154Z,80.37
2022-12-01T01:23:36.960Z,79.44
2022-12-01T01:26:39.896Z,78.32
2022-12-01T01:29:44.027Z,79.92
2022-12-01T01:32:47.378Z,81.57
2022-12-01T01:35:51.377Z,82.90
2022-12-01T01:38:55.409Z,83.45
2022-12-01T01:41:58.812Z,84.00
2022-12-01T01:45:02.130Z,83.78
2022-12-01T01:48:05.951Z,83.20
2022-12-01T01:51:09.685Z,81.93
2022-12-01T01:54:19.540Z,82.04
2022-12-01T01:57:29.781Z,81.81
2022-12-01T02:00:33.606Z,79.87
2022-12-01T02:03:39.399Z,79.77
2022-12-01T02:06:44.715Z,78.83
2022-12-01T02:09:48.462Z,77.77
2022-12-01T02:13:10.539Z,76.59
2022-12-01T02:16:43.138Z,75.08
2022-12-01T02:20:14.036Z,74.60
2022-12-01T02:23:41.507Z,75.33
2022-12-01T02:26:50.496Z,77.08
2022-12-01T02:30:01.490Z,77.52
2022-12-01T02:33:13.549Z,78.21
2022-12-01T02:36:38.361Z,77.67
2022-12-01T02:39:51.930Z,77.32
2022-12-01T02:43:21.186Z,78.31
2022-12-01T02:46:30.492Z,78.71
2022-12-01T02:49:37.503Z,78.64
2022-12-01T02:52:41.636Z,77.86
2022-12-01T02:55:53.031Z,77.95
2022-12-01T02:58:56.209Z,78.42
2022-12-01T03:02:08.991Z,78.46
2022-12-01T03:05:24.213Z,77.55
2022-12-01T03:08:35.716Z,76.86
2022-12-01T03:11:57.262Z,77.74
2022-12-01T03:15:51.456Z,77.85
2022-12-01T03:19:00.912Z,78.34
2022-12-01T03:22:27.354Z,78.35
2022-12-01T03:25:32.493Z,78.42
2022-12-01T03:28:40.632Z,77.37
2022-12-01T03:31:53.281Z,78.21
2022-12-01T03:35:01.704Z,78.31
2022-12-01T03:38:25.347Z,78.54
2022-12-01T03:41:51.835Z,78.58
2022-12-01T03:44:57.837Z,77.99
2022-12-01T03:48:01.360Z,77.57
2022-12-01T03:51:10.375Z,77.32
2022-12-01T03:54:43.286Z,77.94
2022-12-01T03:57:52.396Z,78.20
2022-12-01T04:00:57.746Z,79.78
2022-12-01T04:04:11.602Z,80.85
2022-12-01T04:07:14.969Z,81.91
2022-12-01T04:10:18.529Z,82.64
2022-12-01T04:13:25.656Z,82.60
2022-12-01T04:16:28.628Z,82.69
2022-12-01T04:19:32.183Z,82.92
2022-12-01T04:22:35.269Z,83.21
2022-12-01T04:25:38.262Z,83.64
2022-12-01T04:28:41.274Z,83.88
2022-12-01T04:31:45.309Z,84.29
2022-12-01T04:34:48.537Z,84.54
2022-12-01T04:37:51.566Z,84.53
2022-12-01T04:40:55.447Z,84.22
2022-12-01T04:43:58.531Z,82.94
2022-12-01T04:47:02.124Z,82.95
2022-12-01T04:50:06.114Z,82.95
2022-12-01T04:53:09.907Z,83.09
2022-12-01T04:56:12.961Z,83.14
2022-12-01T04:59:17.390Z,83.09
2022-12-01T05:02:20.578Z,84.20
2022-12-01T05:05:24.281Z,85.06
2022-12-01T05:08:27.857Z,85.12
2022-12-01T05:11:32.592Z,85.15
2022-12-01T05:14:37.379Z,84.28
2022-12-01T05:17:42.413Z,83.83
2022-12-01T05:20:57.485Z,84.73
2022-12-01T05:24:00.874Z,85.27
2022-12-01T05:27:04.922Z,85.67
2022-12-01T05:30:09.076Z,86.25
2022-12-01T05:33:12.511Z,86.62
2022-12-01T05:36:16.880Z,87.59
2022-12-01T05:39:19.901Z,87.77
2022-12-01T05:42:24.268Z,87.65
2022-12-01T05:45:27.722Z,88.01
2022-12-01T05:48:31.353Z,89.39
2022-12-01T05:51:34.365Z,90.96
2022-12-01T05:54:40.902Z,93.00
2022-12-01T05:57:44.587Z,94.85
2022-12-01T06:00:48.208Z,94.33
2022-12-01T06:03:53.203Z,93.69
2022-12-01T06:06:56.389Z,93.68
2022-12-01T06:10:00.399Z,94.48
2022-12-01T06:13:03.336Z,92.79
2022-12-01T06:16:07.201Z,91.93
2022-12-01T06:19:10.576Z,91.51
2022-12-01T06:22:14.353Z,91.27
2022-12-01T06:25:17.781Z,91.78
2022-12-01T06:28:22.451Z,90.66
2022-12-01T06:31:27.152Z,90.25
2022-12-01T06:34:33.599Z,90.56
2022-12-01T06:37:38.098Z,90.46
2022-12-01T06:40:43.773Z,90.56
2022-12-01T06:43:46.692Z,90.58
2022-12-01T06:46:55.389Z,91.71
2022-12-01T06:49:58.513Z,91.20
2022-12-01T06:53:02.446Z,91.43
2022-12-01T06:56:06.474Z,92.29
2022-12-01T06:59:10.233Z,93.95
2022-12-01T07:02:13.669Z,94.10
2022-12-01T07:05:17.185Z,93.17
2022-12-01T07:08:20.287Z,92.84
2022-12-01T07:11:23.546Z,92.31
2022-12-01T07:14:27.454Z,92.60
2022-12-01T07:17:30.780Z,92.42
2022-12-01T07:20:34.204Z,91.48
2022-12-01T07:23:37.552Z,90.93
2022-12-01T07:26:41.349Z,90.39
2022-12-01T07:29:45.166Z,89.94
2022-12-01T07:32:48.878Z,90.23
2022-12-01T07:35:54.094Z,90.06
2022-12-01T07:38:57.189Z,89.37
2022-12-01T07:42:01.576Z,89.98
2022-12-01T07:45:05.096Z,90.96
2022-12-01T07:48:08.353Z,90.52
2022-12-01T07:51:16.936Z,90.48
2022-12-01T07:54:21.447Z,90.15
2022-12-01T07:57:24.990Z,90.56
2022-12-01T08:00:29.035Z,90.71
2022-12-01T08:03:32.662Z,90.07
2022-12-01T08:06:35.714Z,89.89
2022-12-01T08:09:38.982Z,90.15
2022-12-01T08:12:42.176Z,90.10
2022-12-01T08:15:45.280Z,88.64
2022-12-01T08:18:48.535Z,88.15
2022-12-01T08:21:52.259Z,87.60
2022-12-01T08:24:55.337Z,86.51
2022-12-01T08:28:00.786Z,86.89
2022-12-01T08:31:12.431Z,86.23
2022-12-01T08:34:15.649Z,85.47
2022-12-01T08:37:18.686Z,84.13
2022-12-01T08:40:22.510Z,84.20
2022-12-01T08:43:55.998Z,84.03
2022-12-01T08:46:50.197Z,83.04
2022-12-01T08:49:53.506Z,82.43
2022-12-01T08:52:56.707Z,81.27
2022-12-01T08:56:05.552Z,82.16
2022-12-01T08:59:09.350Z,80.99
2022-12-01T09:02:16.621Z,80.92
2022-12-01T09:05:20.249Z,81.69
2022-12-01T09:08:32.266Z,79.90
2022-12-01T09:11:36.124Z,80.58
2022-12-01T09:14:41.007Z,81.33
2022-12-01T09:17:44.552Z,80.58
2022-12-01T09:20:48.066Z,80.03
2022-12-01T09:23:52.086Z,79.25
2022-12-01T09:26:56.645Z,80.23
2022-12-01T09:30:00.102Z,80.15
2022-12-01T09:33:03.137Z,80.17
2022-12-01T09:36:08.713Z,79.64
2022-12-01T09:39:14.632Z,79.33
2022-12-01T09:42:22.446Z,78.29
2022-12-01T09:45:28.293Z,77.53
2022-12-01T09:48:44.161Z,78.25
2022-12-01T09:51:47.116Z,77.21
2022-12-01T09:54:50.897Z,76.34
2022-12-01T09:57:56.558Z,75.62
2022-12-01T10:01:00.793Z,75.29
2022-12-01T10:04:25.482Z,74.85
2022-12-01T10:07:40.618Z,75.26
2022-12-01T10:10:49.432Z,75.39
2022-12-01T10:13:52.580Z,76.48
2022-12-01T10:17:11.072Z,74.81
2022-12-01T10:20:20.059Z,74.37
2022-12-01T10:24:03.417Z,74.69
2022-12-01T10:27:19.407Z,74.80
2022-12-01T10:30:24.264Z,74.18
2022-12-01T10:33:34.534Z,72.86
2022-12-01T10:36:37.842Z,71.62
2022-12-01T10:39:43.956Z,69.40
2022-12-01T10:42:51.085Z,66.56
2022-12-01T10:45:54.717Z,67.17
2022-12-01T10:48:59.707Z,68.63
2022-12-01T10:52:02.796Z,67.11
2022-12-01T10:55:25.019Z,67.93
2022-12-01T10:58:29.229Z,67.47
2022-12-01T11:01:36.115Z,66.89
2022-12-01T11:04:47.255Z,66.34
2022-12-01T11:07:50.758Z,63.68
2022-12-01T11:10:55.257Z,66.02
2022-12-01T11:14:01.499Z,65.69
2022-12-01T11:17:23.040Z,63.10
2022-12-01T11:20:38.610Z,62.51
2022-12-01T11:23:47.096Z,62.21
2022-12-01T11:26:51.053Z,61.12
2022-12-01T11:30:00.749Z,62.12
2022-12-01T11:33:05.935Z,59.95
2022-12-01T11:36:16.050Z,55.69
2022-12-01T11:39:29.015Z,54.56
2022-12-01T11:42:34.495Z,53.56
2022-12-01T11:45:40.315Z,52.39
2022-12-01T11:48:58.131Z,50.33
2022-12-01T11:52:17.480Z,48.30
2022-12-01T11:55:25.925Z,50.37
2022-12-01T11:58:29.257Z,50.06
2022-12-01T12:01:35.404Z,51.70
2022-12-01T12:04:57.168Z,48.45
2022-12-01T12:08:09.787Z,48.28
2022-12-01T12:11:22.135Z,49.91
2022-12-01T12:14:37.255Z,50.07
2022-12-01T12:18:10.186Z,53.09
2022-12-01T12:21:34.048Z,50.72
2022-12-01T12:24:46.579Z,50.42
2022-12-01T12:28:08.408Z,47.32
2022-12-01T12:31:22.277Z,45.57
2022-12-01T12:34:28.417Z,47.77
2022-12-01T12:37:41.421Z,46.69
2022-12-01T12:40:50.271Z,50.35
2022-12-01T12:44:24.223Z,46.93
2022-12-01T12:47:49.923Z,48.14
2022-12-01T12:50:59.909Z,45.29
2022-12-01T12:54:12.552Z,46.59
2022-12-01T12:57:30.324Z,45.01
2022-12-01T13:00:34.172Z,42.64
2022-12-01T13:03:53.433Z,42.90
2022-12-01T13:07:14.279Z,44.33
2022-12-01T13:10:24.120Z,42.93
2022-12-01T13:14:10.568Z,43.82
2022-12-01T13:17:20.018Z,42.18
2022-12-01T13:20:27.773Z,43.49
2022-12-01T13:23:31.104Z,45.02
2022-12-01T13:26:36.631Z,44.16
2022-12-01T13:29:48.404Z,43.69
2022-12-01T13:32:59.963Z,42.97
2022-12-01T13:36:44.734Z,43.45
2022-12-01T13:39:36.503Z,43.39
2022-12-01T13:42:40.666Z,42.75
2022-12-01T13:45:43.886Z,44.33
2022-12-01T13:48:47.018Z,44.52
2022-12-01T13:52:19.369Z,45.06
2022-12-01T13:55:29.008Z,45.64
2022-12-01T13:58:34.949Z,46.83
2022-12-01T14:01:46.561Z,47.44
2022-12-01T14:04:50.274Z,46.85
2022-12-01T14:07:54.535Z,49.26
2022-12-01T14:11:04.473Z,50.55
2022-12-01T14:14:13.594Z,53.42
2022-12-01T14:17:35.449Z,54.37
2022-12-01T14:20:46.139Z,55.47
2022-12-01T14:24:01.474Z,56.68
2022-12-01T14:27:05.934Z,57.73
2022-12-01T14:30:41.280Z,59.44
2022-12-01T14:33:49.491Z,59.96
2022-12-01T14:36:56.147Z,64.86
2022-12-01T14:40:04.438Z,67.43
2022-12-01T14:43:31.085Z,67.15
2022-12-01T14:46:52.124Z,68.82
2022-12-01T14:49:58.618Z,69.48
2022-12-01T14:53:26.266Z,70.96
2022-12-01T14:56:29.834Z,71.81
2022-12-01T14:59:34.406Z,72.73
2022-12-01T15:02:41.804Z,74.03
2022-12-01T15:05:45.151Z,74.94
2022-12-01T15:12:33.908Z,76.89
2022-12-01T15:15:37.864Z,78.62
2022-12-01T15:18:40.946Z,79.16
2022-12-01T15:21:44.242Z,80.27
2022-12-01T15:24:47.548Z,80.98
2022-12-01T15:28:13.772Z,81.87
2022-12-01T15:31:17.074Z,82.00
2022-12-01T15:34:25.090Z,82.55
2022-12-01T15:37:30.760Z,82.73
2022-12-01T15:44:05.628Z,82.08
2022-12-01T15:47:31.418Z,83.25
2022-12-01T15:50:46.254Z,83.41
2022-12-01T15:53:54.183Z,82.94
2022-12-01T15:56:59.267Z,82.65
2022-12-01T16:00:05.099Z,82.95
2022-12-01T16:03:15.293Z,83.42
2022-12-01T16:06:23.304Z,83.37
2022-12-01T16:09:36.701Z,83.57
2022-12-01T16:12:40.609Z,83.99
2022-12-01T16:15:44.351Z,84.79
2022-12-01T16:19:08.139Z,84.85
2022-12-01T16:22:10.932Z,85.14
2022-12-01T16:25:39.362Z,85.24
2022-12-01T16:28:42.441Z,85.63
2022-12-01T16:32:12.728Z,85.93
2022-12-01T16:35:30.519Z,86.17
2022-12-01T16:38:34.662Z,86.17
2022-12-01T16:41:45.084Z,86.29
2022-12-01T16:44:50.022Z,86.59
2022-12-01T16:47:53.489Z,86.69
2022-12-01T16:50:57.389Z,86.67
2022-12-01T16:54:00.675Z,86.67
2022-12-01T16:57:05.976Z,86.43
2022-12-01T17:00:09.653Z,86.71
2022-12-01T17:03:17.214Z,87.07
2022-12-01T17:06:20.761Z,86.97
2022-12-01T17:09:24.006Z,86.71
2022-12-01T17:12:27.065Z,86.81
2022-12-01T17:15:30.493Z,86.75
2022-12-01T17:18:36.079Z,86.72
2022-12-01T17:21:40.737Z,86.99
2022-12-01T17:24:43.685Z,87.20
2022-12-01T17:27:47.640Z,87.20
2022-12-01T17:30:53.650Z,87.09
2022-12-01T17:33:58.331Z,87.30
2022-12-01T17:37:02.646Z,87.31
2022-12-01T17:40:07.492Z,87.30
2022-12-01T17:43:10.793Z,87.27
2022-12-01T17:46:16.018Z,87.26
2022-12-01T17:49:19.725Z,87.52
2022-12-01T17:52:28.042Z,87.58
2022-12-01T17:55:31.464Z,87.55
2022-12-01T17:58:35.368Z,87.83
2022-12-01T18:01:38.853Z,88.14
2022-12-01T18:04:42.709Z,88.55
2022-12-01T18:07:45.961Z,88.63
2022-12-01T18:10:49.522Z,88.82
2022-12-01T18:13:53.566Z,89.09
2022-12-01T18:16:57.072Z,89.18
2022-12-01T18:20:00.611Z,89.15
2022-12-01T18:23:04.607Z,89.17
2022-12-01T18:26:16.191Z,89.02
2022-12-01T18:29:29.614Z,89.28
2022-12-01T18:32:33.082Z,89.27
2022-12-01T18:35:41.983Z,89.33
2022-12-01T18:38:47.758Z,89.08
2022-12-01T18:41:52.308Z,88.97
2022-12-01T18:44:57.005Z,88.90
2022-12-01T18:48:03.544Z,89.36
2022-12-01T18:51:08.439Z,89.12
2022-12-01T18:54:14.539Z,89.03
2022-12-01T18:57:19.677Z,88.99
2022-12-01T19:00:23.725Z,89.38
2022-12-01T19:03:32.385Z,89.66
2022-12-01T19:06:38.299Z,90.25
2022-12-01T19:09:42.247Z,90.66
2022-12-01T19:12:46.968Z,90.49
2022-12-01T19:15:50.626Z,90.52
2022-12-01T19:18:55.782Z,90.87
2022-12-01T19:21:59.547Z,91.54
2022-12-01T19:25:04.782Z,92.01
2022-12-01T19:28:10.838Z,92.55
2022-12-01T19:31:17.822Z,92.56
2022-12-01T19:34:21.548Z,93.06
2022-12-01T19:37:25.891Z,92.95
2022-12-01T19:40:29.314Z,92.58
2022-12-01T19:43:35.250Z,92.40
2022-12-01T19:46:39.153Z,92.52
2022-12-01T19:49:52.308Z,92.89
2022-12-01T19:52:55.890Z,93.06
2022-12-01T19:56:03.662Z,93.53
2022-12-01T19:59:08.578Z,93.14
2022-12-01T20:02:13.975Z,93.57
2022-12-01T20:05:17.710Z,93.30
2022-12-01T20:08:21.407Z,93.14
2022-12-01T20:11:26.682Z,93.46
2022-12-01T20:14:30.628Z,93.53
2022-12-01T20:17:37.225Z,93.62
2022-12-01T20:20:40.673Z,93.69
2022-12-01T20:23:48.966Z,94.06
2022-12-01T20:26:57.011Z,94.56
2022-12-01T20:30:00.390Z,94.49
2022-12-01T20:33:03.910Z,94.40
2022-12-01T20:36:08.553Z,94.39
2022-12-01T20:39:12.949Z,94.33
2022-12-01T20:42:19.311Z,94.18
2022-12-01T20:45:24.064Z,94.52
2022-12-01T20:48:28.250Z,94.66
2022-12-01T20:51:35.205Z,94.57
2022-12-01T20:54:39.409Z,94.59
2022-12-01T20:57:44.494Z,94.56
2022-12-01T21:00:49.305Z,94.01
2022-12-01T21:03:52.808Z,93.88
2022-12-01T21:06:59.160Z,94.15
2022-12-01T21:10:03.216Z,94.07
2022-12-01T21:13:39.724Z,94.24
2022-12-01T21:16:48.324Z,94.07
2022-12-01T21:20:05.524Z,94.20
2022-12-01T21:23:13.666Z,94.60
2022-12-01T21:26:17.451Z,94.63
2022-12-01T21:29:23.195Z,94.54
2022-12-01T21:32:31.895Z,94.88
2022-12-01T21:35:35.034Z,94.67
2022-12-01T21:38:38.424Z,94.52
2022-12-01T21:41:41.613Z,95.66
2022-12-01T21:44:45.694Z,96.31
2022-12-01T21:47:48.704Z,96.05
2022-12-01T21:51:05.243Z,96.39
2022-12-01T21:54:13.883Z,97.63
2022-12-01T21:57:46.256Z,97.43
2022-12-01T22:00:49.394Z,97.25
2022-12-01T22:03:54.902Z,96.36
2022-12-01T22:07:01.447Z,96.61
2022-12-01T22:10:43.299Z,98.01
2022-12-01T22:14:10.003Z,97.29
2022-12-01T22:17:21.126Z,96.37
2022-12-01T22:20:24.327Z,95.76
2022-12-01T22:23:34.212Z,95.60
2022-12-01T22:26:40.395Z,95.91
2022-12-01T22:29:45.962Z,96.38
2022-12-01T22:33:00.269Z,96.87
2022-12-01T22:36:23.065Z,96.35
2022-12-01T22:39:34.414Z,96.08
2022-12-01T22:42:38.115Z,96.35
2022-12-01T22:45:43.684Z,96.65
2022-12-01T22:48:50.705Z,96.27
2022-12-01T22:52:03.790Z,96.37
2022-12-01T22:55:15.795Z,96.54
2022-12-01T22:58:28.603Z,96.92
2022-12-01T23:01:34.135Z,97.25
2022-12-01T23:04:42.475Z,97.47
2022-12-01T23:07:46.282Z,97.55
2022-12-01T23:10:50.093Z,97.69
2022-12-01T23:13:53.944Z,97.95
2022-12-01T23:17:08.529Z,98.69
2022-12-01T23:20:15.434Z,98.85
2022-12-01T23:23:27.373Z,98.35
2022-12-01T23:26:31.266Z,98.60
2022-12-01T23:29:35.098Z,99.15
2022-12-01T23:32:38.899Z,99.27
2022-12-01T23:35:54.980Z,98.89
2022-12-01T23:39:01.883Z,99.39
2022-12-01T23:42:06.586Z,99.55
2022-12-01T23:45:22.868Z,99.02
2022-12-01T23:48:33.319Z,97.60
2022-12-01T23:51:57.622Z,96.84
2022-12-01T23:55:08.017Z,96.16
2022-12-01T23:58:13.830Z,96.40
